sensor_id;sensor_type;location;lat;lon;timestamp;temperature;humidity
6407;DHT22;3236;51.022;6.818;2023-03-05T00:00:14;4.40;99.90
6407;DHT22;3236;51.022;6.818;2023-03-05T00:02:42;4.90;99.90
6407;DHT22;3236;51.022;6.818;2023-03-05T00:07:38;4.30;99.90
6407;DHT22;3236;51.022;6.818;2023-03-05T00:10:06;4.40;99.90
6407;DHT22;3236;51.022;6.818;2023-03-05T00:12:33;4.30;99.90
6407;DHT22;3236;51.022;6.818;2023-03-05T00:15:00;4.60;99.90
6407;DHT22;3236;51.022;6.818;2023-03-05T00:24:54;4.60;99.90
6407;DHT22;3236;51.022;6.818;2023-03-05T00:27:22;4.20;99.90
6407;DHT22;3236;51.022;6.818;2023-03-05T00:29:49;4.50;99.90
6407;DHT22;3236;51.022;6.818;2023-03-05T00:34:43;4.60;99.90
6407;DHT22;3236;51.022;6.818;2023-03-05T00:42:06;4.50;99.90
6407;DHT22;3236;51.022;6.818;2023-03-05T00:44:33;4.50;99.90
6407;DHT22;3236;51.022;6.818;2023-03-05T00:47:01;4.20;99.90
6407;DHT22;3236;51.022;6.818;2023-03-05T00:49:32;4.30;99.90
6407;DHT22;3236;51.022;6.818;2023-03-05T00:51:59;4.60;99.90
6407;DHT22;3236;51.022;6.818;2023-03-05T00:54:26;4.40;99.90
6407;DHT22;3236;51.022;6.818;2023-03-05T00:56:54;4.30;99.90
6407;DHT22;3236;51.022;6.818;2023-03-05T00:59:24;4.40;99.90
6407;DHT22;3236;51.022;6.818;2023-03-05T01:01:51;4.60;99.90
6407;DHT22;3236;51.022;6.818;2023-03-05T01:04:21;4.40;99.90
6407;DHT22;3236;51.022;6.818;2023-03-05T01:09:18;4.40;99.90
6407;DHT22;3236;51.022;6.818;2023-03-05T01:11:46;4.20;99.90
6407;DHT22;3236;51.022;6.818;2023-03-05T01:14:18;4.00;99.90
6407;DHT22;3236;51.022;6.818;2023-03-05T01:16:46;4.50;99.90
6407;DHT22;3236;51.022;6.818;2023-03-05T01:19:14;3.90;99.90
6407;DHT22;3236;51.022;6.818;2023-03-05T01:21:44;4.40;99.90
6407;DHT22;3236;51.022;6.818;2023-03-05T01:24:11;4.20;99.90
6407;DHT22;3236;51.022;6.818;2023-03-05T01:26:44;4.00;99.90
6407;DHT22;3236;51.022;6.818;2023-03-05T01:29:11;4.60;99.90
6407;DHT22;3236;51.022;6.818;2023-03-05T01:31:39;4.30;99.90
6407;DHT22;3236;51.022;6.818;2023-03-05T01:36:36;4.30;99.90
6407;DHT22;3236;51.022;6.818;2023-03-05T01:39:03;4.00;99.90
6407;DHT22;3236;51.022;6.818;2023-03-05T01:41:30;4.10;99.90
6407;DHT22;3236;51.022;6.818;2023-03-05T01:44:01;4.30;99.90
6407;DHT22;3236;51.022;6.818;2023-03-05T01:46:31;4.30;99.90
6407;DHT22;3236;51.022;6.818;2023-03-05T01:49:09;4.20;99.90
6407;DHT22;3236;51.022;6.818;2023-03-05T01:51:41;3.90;99.90
6407;DHT22;3236;51.022;6.818;2023-03-05T01:54:10;4.20;99.90
6407;DHT22;3236;51.022;6.818;2023-03-05T01:56:38;4.40;99.90
6407;DHT22;3236;51.022;6.818;2023-03-05T01:59:05;3.80;99.90
6407;DHT22;3236;51.022;6.818;2023-03-05T02:01:37;4.20;99.90
6407;DHT22;3236;51.022;6.818;2023-03-05T02:04:06;4.20;99.90
6407;DHT22;3236;51.022;6.818;2023-03-05T02:06:34;3.70;99.90
6407;DHT22;3236;51.022;6.818;2023-03-05T02:09:03;4.70;99.90
6407;DHT22;3236;51.022;6.818;2023-03-05T02:11:30;4.30;99.90
6407;DHT22;3236;51.022;6.818;2023-03-05T02:13:58;3.90;99.90
6407;DHT22;3236;51.022;6.818;2023-03-05T02:16:25;4.20;99.90
6407;DHT22;3236;51.022;6.818;2023-03-05T02:19:00;5.00;99.90
6407;DHT22;3236;51.022;6.818;2023-03-05T02:21:36;3.80;99.90
6407;DHT22;3236;51.022;6.818;2023-03-05T02:24:04;3.60;99.90
6407;DHT22;3236;51.022;6.818;2023-03-05T02:26:31;3.70;99.90
6407;DHT22;3236;51.022;6.818;2023-03-05T02:29:00;3.50;99.90
6407;DHT22;3236;51.022;6.818;2023-03-05T02:31:28;3.80;99.90
6407;DHT22;3236;51.022;6.818;2023-03-05T02:33:55;3.70;99.90
6407;DHT22;3236;51.022;6.818;2023-03-05T02:36:23;3.30;99.90
6407;DHT22;3236;51.022;6.818;2023-03-05T02:38:54;3.60;99.90
6407;DHT22;3236;51.022;6.818;2023-03-05T02:41:23;3.40;99.90
6407;DHT22;3236;51.022;6.818;2023-03-05T02:43:50;3.60;99.90
6407;DHT22;3236;51.022;6.818;2023-03-05T02:46:17;3.60;99.90
6407;DHT22;3236;51.022;6.818;2023-03-05T02:48:44;3.90;99.90
6407;DHT22;3236;51.022;6.818;2023-03-05T02:51:12;3.50;99.90
6407;DHT22;3236;51.022;6.818;2023-03-05T02:53:39;3.90;99.90
6407;DHT22;3236;51.022;6.818;2023-03-05T02:56:07;3.30;99.90
6407;DHT22;3236;51.022;6.818;2023-03-05T02:58:35;3.50;99.90
6407;DHT22;3236;51.022;6.818;2023-03-05T03:01:04;4.00;99.90
6407;DHT22;3236;51.022;6.818;2023-03-05T03:05:59;4.10;99.90
6407;DHT22;3236;51.022;6.818;2023-03-05T03:10:53;3.70;99.90
6407;DHT22;3236;51.022;6.818;2023-03-05T03:13:22;3.70;99.90
6407;DHT22;3236;51.022;6.818;2023-03-05T03:15:49;3.70;99.90
6407;DHT22;3236;51.022;6.818;2023-03-05T03:18:16;3.20;99.90
6407;DHT22;3236;51.022;6.818;2023-03-05T03:20:43;3.90;99.90
6407;DHT22;3236;51.022;6.818;2023-03-05T03:23:10;3.80;99.90
6407;DHT22;3236;51.022;6.818;2023-03-05T03:25:37;3.70;99.90
6407;DHT22;3236;51.022;6.818;2023-03-05T03:28:04;3.60;99.90
6407;DHT22;3236;51.022;6.818;2023-03-05T03:30:32;3.80;99.90
6407;DHT22;3236;51.022;6.818;2023-03-05T03:32:59;3.60;99.90
6407;DHT22;3236;51.022;6.818;2023-03-05T03:35:26;3.60;99.90
6407;DHT22;3236;51.022;6.818;2023-03-05T03:37:53;3.70;99.90
6407;DHT22;3236;51.022;6.818;2023-03-05T03:42:47;3.70;99.90
6407;DHT22;3236;51.022;6.818;2023-03-05T03:45:16;3.30;99.90
6407;DHT22;3236;51.022;6.818;2023-03-05T03:47:46;3.50;99.90
6407;DHT22;3236;51.022;6.818;2023-03-05T03:53:44;3.50;99.90
6407;DHT22;3236;51.022;6.818;2023-03-05T03:56:11;3.70;99.90
6407;DHT22;3236;51.022;6.818;2023-03-05T03:58:38;3.90;99.90
6407;DHT22;3236;51.022;6.818;2023-03-05T04:01:05;3.80;99.90
6407;DHT22;3236;51.022;6.818;2023-03-05T04:03:33;3.40;99.90
6407;DHT22;3236;51.022;6.818;2023-03-05T04:06:00;3.60;99.90
6407;DHT22;3236;51.022;6.818;2023-03-05T04:08:27;3.90;99.90
6407;DHT22;3236;51.022;6.818;2023-03-05T04:10:54;4.00;99.90
6407;DHT22;3236;51.022;6.818;2023-03-05T04:13:21;3.60;99.90
6407;DHT22;3236;51.022;6.818;2023-03-05T04:15:48;3.60;99.90
6407;DHT22;3236;51.022;6.818;2023-03-05T04:18:15;3.80;99.90
6407;DHT22;3236;51.022;6.818;2023-03-05T04:23:12;3.60;99.90
6407;DHT22;3236;51.022;6.818;2023-03-05T04:25:39;3.80;99.90
6407;DHT22;3236;51.022;6.818;2023-03-05T04:28:06;3.60;99.90
6407;DHT22;3236;51.022;6.818;2023-03-05T04:30:33;3.70;99.90
6407;DHT22;3236;51.022;6.818;2023-03-05T04:33:00;4.40;99.90
6407;DHT22;3236;51.022;6.818;2023-03-05T04:35:27;3.50;99.90
6407;DHT22;3236;51.022;6.818;2023-03-05T04:37:58;3.40;99.90
6407;DHT22;3236;51.022;6.818;2023-03-05T04:40:25;3.70;99.90
6407;DHT22;3236;51.022;6.818;2023-03-05T04:45:24;3.20;99.90
6407;DHT22;3236;51.022;6.818;2023-03-05T04:47:50;3.40;99.90
6407;DHT22;3236;51.022;6.818;2023-03-05T04:50:18;3.20;99.90
6407;DHT22;3236;51.022;6.818;2023-03-05T04:52:45;3.80;99.90
6407;DHT22;3236;51.022;6.818;2023-03-05T04:55:15;3.70;99.90
6407;DHT22;3236;51.022;6.818;2023-03-05T04:57:42;2.10;99.90
6407;DHT22;3236;51.022;6.818;2023-03-05T05:00:12;3.60;99.90
6407;DHT22;3236;51.022;6.818;2023-03-05T05:02:39;3.70;99.90
6407;DHT22;3236;51.022;6.818;2023-03-05T05:07:35;3.30;99.90
6407;DHT22;3236;51.022;6.818;2023-03-05T05:10:03;3.30;99.90
6407;DHT22;3236;51.022;6.818;2023-03-05T05:12:31;3.30;99.90
6407;DHT22;3236;51.022;6.818;2023-03-05T05:14:58;3.30;99.90
6407;DHT22;3236;51.022;6.818;2023-03-05T05:17:26;3.00;99.90
6407;DHT22;3236;51.022;6.818;2023-03-05T05:19:55;3.60;99.90
6407;DHT22;3236;51.022;6.818;2023-03-05T05:22:27;3.30;99.90
6407;DHT22;3236;51.022;6.818;2023-03-05T05:24:54;3.70;99.90
6407;DHT22;3236;51.022;6.818;2023-03-05T05:29:56;3.40;99.90
6407;DHT22;3236;51.022;6.818;2023-03-05T05:32:24;3.10;99.90
6407;DHT22;3236;51.022;6.818;2023-03-05T05:34:53;3.30;99.90
6407;DHT22;3236;51.022;6.818;2023-03-05T05:39:48;3.50;99.90
6407;DHT22;3236;51.022;6.818;2023-03-05T05:42:16;3.50;99.90
6407;DHT22;3236;51.022;6.818;2023-03-05T05:44:43;3.10;99.90
6407;DHT22;3236;51.022;6.818;2023-03-05T05:47:13;3.10;99.90
6407;DHT22;3236;51.022;6.818;2023-03-05T05:49:40;3.30;99.90
6407;DHT22;3236;51.022;6.818;2023-03-05T05:52:07;3.40;99.90
6407;DHT22;3236;51.022;6.818;2023-03-05T05:54:34;3.10;99.90
6407;DHT22;3236;51.022;6.818;2023-03-05T05:57:02;3.30;99.90
6407;DHT22;3236;51.022;6.818;2023-03-05T05:59:29;3.30;99.90
6407;DHT22;3236;51.022;6.818;2023-03-05T06:01:56;3.30;99.90
6407;DHT22;3236;51.022;6.818;2023-03-05T06:04:25;3.50;99.90
6407;DHT22;3236;51.022;6.818;2023-03-05T06:06:58;3.60;99.90
6407;DHT22;3236;51.022;6.818;2023-03-05T06:09:26;3.10;99.90
6407;DHT22;3236;51.022;6.818;2023-03-05T06:11:53;3.40;99.90
6407;DHT22;3236;51.022;6.818;2023-03-05T06:14:20;3.40;99.90
6407;DHT22;3236;51.022;6.818;2023-03-05T06:16:47;3.10;99.90
6407;DHT22;3236;51.022;6.818;2023-03-05T06:19:15;2.70;99.90
6407;DHT22;3236;51.022;6.818;2023-03-05T06:21:43;3.60;99.90
6407;DHT22;3236;51.022;6.818;2023-03-05T06:24:10;3.40;99.90
6407;DHT22;3236;51.022;6.818;2023-03-05T06:26:37;3.30;99.90
6407;DHT22;3236;51.022;6.818;2023-03-05T06:29:04;3.70;99.90
6407;DHT22;3236;51.022;6.818;2023-03-05T06:31:31;3.30;99.90
6407;DHT22;3236;51.022;6.818;2023-03-05T06:33:59;3.40;99.90
6407;DHT22;3236;51.022;6.818;2023-03-05T06:36:27;3.30;99.90
6407;DHT22;3236;51.022;6.818;2023-03-05T06:38:59;3.50;99.90
6407;DHT22;3236;51.022;6.818;2023-03-05T06:41:27;3.80;99.90
6407;DHT22;3236;51.022;6.818;2023-03-05T06:43:56;3.90;99.90
6407;DHT22;3236;51.022;6.818;2023-03-05T06:48:54;3.70;99.90
6407;DHT22;3236;51.022;6.818;2023-03-05T06:51:23;3.70;99.90
6407;DHT22;3236;51.022;6.818;2023-03-05T06:53:51;4.00;99.90
6407;DHT22;3236;51.022;6.818;2023-03-05T06:56:21;3.70;99.90
6407;DHT22;3236;51.022;6.818;2023-03-05T06:58:49;3.90;99.90
6407;DHT22;3236;51.022;6.818;2023-03-05T07:01:17;4.80;99.90
6407;DHT22;3236;51.022;6.818;2023-03-05T07:03:47;3.70;99.90
6407;DHT22;3236;51.022;6.818;2023-03-05T07:06:15;4.10;99.90
6407;DHT22;3236;51.022;6.818;2023-03-05T07:08:42;3.90;99.90
6407;DHT22;3236;51.022;6.818;2023-03-05T07:11:10;4.30;99.90
6407;DHT22;3236;51.022;6.818;2023-03-05T07:16:11;4.00;99.90
6407;DHT22;3236;51.022;6.818;2023-03-05T07:18:39;4.10;99.90
6407;DHT22;3236;51.022;6.818;2023-03-05T07:21:08;4.10;99.90
6407;DHT22;3236;51.022;6.818;2023-03-05T07:23:36;4.10;99.90
6407;DHT22;3236;51.022;6.818;2023-03-05T07:26:04;4.20;99.90
6407;DHT22;3236;51.022;6.818;2023-03-05T07:28:33;4.30;99.90
6407;DHT22;3236;51.022;6.818;2023-03-05T07:31:03;4.20;99.90
6407;DHT22;3236;51.022;6.818;2023-03-05T07:35:58;4.50;99.90
6407;DHT22;3236;51.022;6.818;2023-03-05T07:38:25;4.20;99.90
6407;DHT22;3236;51.022;6.818;2023-03-05T07:48:17;4.50;99.90
6407;DHT22;3236;51.022;6.818;2023-03-05T07:50:45;4.20;99.90
6407;DHT22;3236;51.022;6.818;2023-03-05T07:53:14;4.20;99.90
6407;DHT22;3236;51.022;6.818;2023-03-05T07:55:42;4.00;99.90
6407;DHT22;3236;51.022;6.818;2023-03-05T08:00:37;4.10;99.90
6407;DHT22;3236;51.022;6.818;2023-03-05T08:03:04;4.70;99.90
6407;DHT22;3236;51.022;6.818;2023-03-05T08:05:33;4.30;99.90
6407;DHT22;3236;51.022;6.818;2023-03-05T08:08:01;4.10;99.90
6407;DHT22;3236;51.022;6.818;2023-03-05T08:12:55;4.10;99.90
6407;DHT22;3236;51.022;6.818;2023-03-05T08:20:19;4.80;99.90
6407;DHT22;3236;51.022;6.818;2023-03-05T08:22:48;4.50;99.90
6407;DHT22;3236;51.022;6.818;2023-03-05T08:25:16;4.50;99.90
6407;DHT22;3236;51.022;6.818;2023-03-05T08:30:15;4.60;99.90
6407;DHT22;3236;51.022;6.818;2023-03-05T08:35:10;4.90;99.90
6407;DHT22;3236;51.022;6.818;2023-03-05T08:37:37;5.40;99.90
6407;DHT22;3236;51.022;6.818;2023-03-05T08:40:07;4.90;99.90
6407;DHT22;3236;51.022;6.818;2023-03-05T08:47:29;4.80;99.90
6407;DHT22;3236;51.022;6.818;2023-03-05T08:52:25;5.20;99.90
6407;DHT22;3236;51.022;6.818;2023-03-05T08:54:52;5.60;99.90
6407;DHT22;3236;51.022;6.818;2023-03-05T08:57:21;5.50;99.90
6407;DHT22;3236;51.022;6.818;2023-03-05T09:02:15;5.70;99.90
6407;DHT22;3236;51.022;6.818;2023-03-05T09:04:42;5.40;99.90
6407;DHT22;3236;51.022;6.818;2023-03-05T09:12:05;5.30;99.90
6407;DHT22;3236;51.022;6.818;2023-03-05T09:14:35;5.90;99.90
6407;DHT22;3236;51.022;6.818;2023-03-05T09:19:29;6.60;99.90
6407;DHT22;3236;51.022;6.818;2023-03-05T09:21:56;6.80;99.90
6407;DHT22;3236;51.022;6.818;2023-03-05T09:34:18;7.40;99.90
6407;DHT22;3236;51.022;6.818;2023-03-05T09:39:13;6.50;99.90
6407;DHT22;3236;51.022;6.818;2023-03-05T09:42:10;6.30;99.90
6407;DHT22;3236;51.022;6.818;2023-03-05T09:44:48;6.30;99.90
6407;DHT22;3236;51.022;6.818;2023-03-05T09:49:57;6.10;99.90
6407;DHT22;3236;51.022;6.818;2023-03-05T09:52:35;6.00;99.90
6407;DHT22;3236;51.022;6.818;2023-03-05T09:55:12;6.00;99.90
6407;DHT22;3236;51.022;6.818;2023-03-05T09:57:42;5.80;99.90
6407;DHT22;3236;51.022;6.818;2023-03-05T10:00:33;6.00;99.90
6407;DHT22;3236;51.022;6.818;2023-03-05T10:03:05;5.90;99.90
6407;DHT22;3236;51.022;6.818;2023-03-05T10:06:04;5.70;99.90
6407;DHT22;3236;51.022;6.818;2023-03-05T10:08:45;5.60;99.90
6407;DHT22;3236;51.022;6.818;2023-03-05T10:11:28;5.30;99.90
6407;DHT22;3236;51.022;6.818;2023-03-05T10:13:59;5.20;99.90
6407;DHT22;3236;51.022;6.818;2023-03-05T10:17:03;5.20;99.90
6407;DHT22;3236;51.022;6.818;2023-03-05T10:19:55;4.90;99.90
6407;DHT22;3236;51.022;6.818;2023-03-05T10:22:28;5.40;99.90
6407;DHT22;3236;51.022;6.818;2023-03-05T10:25:17;5.10;99.90
6407;DHT22;3236;51.022;6.818;2023-03-05T10:27:48;5.10;99.90
6407;DHT22;3236;51.022;6.818;2023-03-05T10:30:32;5.50;99.90
6407;DHT22;3236;51.022;6.818;2023-03-05T10:33:13;5.50;99.90
6407;DHT22;3236;51.022;6.818;2023-03-05T10:36:11;5.80;99.90
6407;DHT22;3236;51.022;6.818;2023-03-05T10:39:03;5.70;99.90
6407;DHT22;3236;51.022;6.818;2023-03-05T10:41:40;5.60;99.90
6407;DHT22;3236;51.022;6.818;2023-03-05T10:44:13;5.60;99.90
6407;DHT22;3236;51.022;6.818;2023-03-05T10:46:43;6.40;99.90
6407;DHT22;3236;51.022;6.818;2023-03-05T10:49:16;6.00;99.90
6407;DHT22;3236;51.022;6.818;2023-03-05T10:54:22;6.10;99.90
6407;DHT22;3236;51.022;6.818;2023-03-05T10:57:02;5.70;99.90
6407;DHT22;3236;51.022;6.818;2023-03-05T11:02:04;5.80;99.90
6407;DHT22;3236;51.022;6.818;2023-03-05T11:04:34;6.00;99.90
6407;DHT22;3236;51.022;6.818;2023-03-05T11:07:07;6.10;99.90
6407;DHT22;3236;51.022;6.818;2023-03-05T11:10:03;6.10;99.90
6407;DHT22;3236;51.022;6.818;2023-03-05T11:12:31;6.10;99.90
6407;DHT22;3236;51.022;6.818;2023-03-05T11:15:05;6.30;99.90
6407;DHT22;3236;51.022;6.818;2023-03-05T11:17:45;6.20;99.90
6407;DHT22;3236;51.022;6.818;2023-03-05T11:20:28;6.00;99.90
6407;DHT22;3236;51.022;6.818;2023-03-05T11:23:10;5.90;99.90
6407;DHT22;3236;51.022;6.818;2023-03-05T11:28:18;5.30;99.90
6407;DHT22;3236;51.022;6.818;2023-03-05T11:30:55;5.10;99.90
6407;DHT22;3236;51.022;6.818;2023-03-05T11:33:22;5.00;99.90
6407;DHT22;3236;51.022;6.818;2023-03-05T11:35:51;5.30;99.90
6407;DHT22;3236;51.022;6.818;2023-03-05T11:38:22;5.00;99.90
6407;DHT22;3236;51.022;6.818;2023-03-05T11:40:50;5.10;99.90
6407;DHT22;3236;51.022;6.818;2023-03-05T11:43:22;4.80;99.90
6407;DHT22;3236;51.022;6.818;2023-03-05T11:45:52;5.00;99.90
6407;DHT22;3236;51.022;6.818;2023-03-05T11:48:23;5.20;99.90
6407;DHT22;3236;51.022;6.818;2023-03-05T11:50:54;5.50;99.90
6407;DHT22;3236;51.022;6.818;2023-03-05T11:53:26;5.20;99.90
6407;DHT22;3236;51.022;6.818;2023-03-05T11:55:57;5.40;99.90
6407;DHT22;3236;51.022;6.818;2023-03-05T11:58:29;7.30;99.90
6407;DHT22;3236;51.022;6.818;2023-03-05T12:00:59;6.10;99.90
6407;DHT22;3236;51.022;6.818;2023-03-05T12:03:29;5.60;99.90
6407;DHT22;3236;51.022;6.818;2023-03-05T12:06:00;5.70;99.90
6407;DHT22;3236;51.022;6.818;2023-03-05T12:08:32;6.60;99.90
6407;DHT22;3236;51.022;6.818;2023-03-05T12:11:06;5.90;99.90
6407;DHT22;3236;51.022;6.818;2023-03-05T12:13:37;5.80;99.90
6407;DHT22;3236;51.022;6.818;2023-03-05T12:16:16;6.00;99.90
6407;DHT22;3236;51.022;6.818;2023-03-05T12:18:54;5.90;99.90
6407;DHT22;3236;51.022;6.818;2023-03-05T12:21:32;6.20;99.90
6407;DHT22;3236;51.022;6.818;2023-03-05T12:24:35;6.30;99.90
6407;DHT22;3236;51.022;6.818;2023-03-05T12:27:16;6.40;99.90
6407;DHT22;3236;51.022;6.818;2023-03-05T12:29:56;6.20;99.90
6407;DHT22;3236;51.022;6.818;2023-03-05T12:32:59;6.50;99.90
6407;DHT22;3236;51.022;6.818;2023-03-05T12:35:41;6.70;99.90
6407;DHT22;3236;51.022;6.818;2023-03-05T12:38:30;6.90;99.90
6407;DHT22;3236;51.022;6.818;2023-03-05T12:44:20;6.80;99.90
6407;DHT22;3236;51.022;6.818;2023-03-05T12:47:19;6.60;99.90
6407;DHT22;3236;51.022;6.818;2023-03-05T12:49:48;6.40;99.90
6407;DHT22;3236;51.022;6.818;2023-03-05T12:52:28;6.60;99.90
6407;DHT22;3236;51.022;6.818;2023-03-05T12:55:17;6.60;99.90
6407;DHT22;3236;51.022;6.818;2023-03-05T12:57:47;6.50;99.90
6407;DHT22;3236;51.022;6.818;2023-03-05T13:00:21;6.60;99.90
6407;DHT22;3236;51.022;6.818;2023-03-05T13:02:55;6.50;99.90
6407;DHT22;3236;51.022;6.818;2023-03-05T13:05:26;7.10;99.90
6407;DHT22;3236;51.022;6.818;2023-03-05T13:08:09;6.90;99.90
6407;DHT22;3236;51.022;6.818;2023-03-05T13:10:37;8.10;99.90
6407;DHT22;3236;51.022;6.818;2023-03-05T13:15:33;7.00;99.90
6407;DHT22;3236;51.022;6.818;2023-03-05T13:18:01;7.00;99.90
6407;DHT22;3236;51.022;6.818;2023-03-05T13:20:35;7.20;99.90
6407;DHT22;3236;51.022;6.818;2023-03-05T13:23:19;7.10;99.90
6407;DHT22;3236;51.022;6.818;2023-03-05T13:26:01;6.90;99.90
6407;DHT22;3236;51.022;6.818;2023-03-05T13:28:30;6.80;99.90
6407;DHT22;3236;51.022;6.818;2023-03-05T13:31:00;6.70;99.90
6407;DHT22;3236;51.022;6.818;2023-03-05T13:33:30;6.60;99.90
6407;DHT22;3236;51.022;6.818;2023-03-05T13:35:57;6.80;99.90
6407;DHT22;3236;51.022;6.818;2023-03-05T13:38:29;6.70;99.90
6407;DHT22;3236;51.022;6.818;2023-03-05T13:43:44;6.60;99.90
6407;DHT22;3236;51.022;6.818;2023-03-05T13:46:22;6.50;99.90
6407;DHT22;3236;51.022;6.818;2023-03-05T13:51:16;6.30;99.90
6407;DHT22;3236;51.022;6.818;2023-03-05T13:56:16;6.40;99.90
6407;DHT22;3236;51.022;6.818;2023-03-05T13:58:46;6.40;99.90
6407;DHT22;3236;51.022;6.818;2023-03-05T14:04:07;5.60;99.90
6407;DHT22;3236;51.022;6.818;2023-03-05T14:06:40;7.10;99.90
6407;DHT22;3236;51.022;6.818;2023-03-05T14:09:15;5.40;99.90
6407;DHT22;3236;51.022;6.818;2023-03-05T14:11:51;5.80;99.90
6407;DHT22;3236;51.022;6.818;2023-03-05T14:14:22;5.80;99.90
6407;DHT22;3236;51.022;6.818;2023-03-05T14:16:51;5.90;99.90
6407;DHT22;3236;51.022;6.818;2023-03-05T14:19:35;5.90;99.90
6407;DHT22;3236;51.022;6.818;2023-03-05T14:22:03;6.00;99.90
6407;DHT22;3236;51.022;6.818;2023-03-05T14:24:32;6.30;99.90
6407;DHT22;3236;51.022;6.818;2023-03-05T14:27:00;6.40;99.90
6407;DHT22;3236;51.022;6.818;2023-03-05T14:29:30;6.00;99.90
6407;DHT22;3236;51.022;6.818;2023-03-05T14:32:02;6.10;99.90
6407;DHT22;3236;51.022;6.818;2023-03-05T14:34:32;6.20;99.90
6407;DHT22;3236;51.022;6.818;2023-03-05T14:37:02;6.10;99.90
6407;DHT22;3236;51.022;6.818;2023-03-05T14:39:35;6.20;99.90
6407;DHT22;3236;51.022;6.818;2023-03-05T14:42:27;6.10;99.90
6407;DHT22;3236;51.022;6.818;2023-03-05T14:44:56;5.90;99.90
6407;DHT22;3236;51.022;6.818;2023-03-05T14:47:26;5.90;99.90
6407;DHT22;3236;51.022;6.818;2023-03-05T14:49:54;5.80;99.90
6407;DHT22;3236;51.022;6.818;2023-03-05T14:54:50;5.90;99.90
6407;DHT22;3236;51.022;6.818;2023-03-05T14:57:19;5.90;99.90
6407;DHT22;3236;51.022;6.818;2023-03-05T15:02:16;6.10;99.90
6407;DHT22;3236;51.022;6.818;2023-03-05T15:04:45;5.90;99.90
6407;DHT22;3236;51.022;6.818;2023-03-05T15:07:20;6.10;99.90
6407;DHT22;3236;51.022;6.818;2023-03-05T15:09:48;5.90;99.90
6407;DHT22;3236;51.022;6.818;2023-03-05T15:12:16;6.30;99.90
6407;DHT22;3236;51.022;6.818;2023-03-05T15:14:50;6.00;99.90
6407;DHT22;3236;51.022;6.818;2023-03-05T15:17:20;6.00;99.90
6407;DHT22;3236;51.022;6.818;2023-03-05T15:22:16;6.40;99.90
6407;DHT22;3236;51.022;6.818;2023-03-05T15:27:15;6.20;99.90
6407;DHT22;3236;51.022;6.818;2023-03-05T15:34:37;5.90;99.90
6407;DHT22;3236;51.022;6.818;2023-03-05T15:37:09;6.00;99.90
6407;DHT22;3236;51.022;6.818;2023-03-05T15:42:03;5.70;99.90
6407;DHT22;3236;51.022;6.818;2023-03-05T15:46:58;6.00;99.90
6407;DHT22;3236;51.022;6.818;2023-03-05T15:51:52;5.80;99.90
6407;DHT22;3236;51.022;6.818;2023-03-05T15:54:22;5.50;99.90
6407;DHT22;3236;51.022;6.818;2023-03-05T15:59:18;5.50;99.90
6407;DHT22;3236;51.022;6.818;2023-03-05T16:01:47;5.50;99.90
6407;DHT22;3236;51.022;6.818;2023-03-05T16:04:17;5.50;99.90
6407;DHT22;3236;51.022;6.818;2023-03-05T16:06:45;5.40;99.90
6407;DHT22;3236;51.022;6.818;2023-03-05T16:09:13;5.50;99.90
6407;DHT22;3236;51.022;6.818;2023-03-05T16:11:43;5.40;99.90
6407;DHT22;3236;51.022;6.818;2023-03-05T16:21:47;5.00;99.90
6407;DHT22;3236;51.022;6.818;2023-03-05T16:26:43;5.40;99.90
6407;DHT22;3236;51.022;6.818;2023-03-05T16:29:11;5.20;99.90
6407;DHT22;3236;51.022;6.818;2023-03-05T16:31:38;5.40;99.90
6407;DHT22;3236;51.022;6.818;2023-03-05T16:34:07;5.70;99.90
6407;DHT22;3236;51.022;6.818;2023-03-05T16:36:35;4.90;99.90
6407;DHT22;3236;51.022;6.818;2023-03-05T16:39:03;5.00;99.90
6407;DHT22;3236;51.022;6.818;2023-03-05T16:41:31;5.10;99.90
6407;DHT22;3236;51.022;6.818;2023-03-05T16:46:28;5.10;99.90
6407;DHT22;3236;51.022;6.818;2023-03-05T16:48:57;5.10;99.90
6407;DHT22;3236;51.022;6.818;2023-03-05T16:53:52;4.90;99.90
6407;DHT22;3236;51.022;6.818;2023-03-05T17:01:18;4.90;99.90
6407;DHT22;3236;51.022;6.818;2023-03-05T17:06:15;5.20;99.90
6407;DHT22;3236;51.022;6.818;2023-03-05T17:08:46;5.10;99.90
6407;DHT22;3236;51.022;6.818;2023-03-05T17:11:14;4.80;99.90
6407;DHT22;3236;51.022;6.818;2023-03-05T17:13:42;4.70;99.90
6407;DHT22;3236;51.022;6.818;2023-03-05T17:16:10;4.80;99.90
6407;DHT22;3236;51.022;6.818;2023-03-05T17:18:39;6.20;99.90
6407;DHT22;3236;51.022;6.818;2023-03-05T17:21:07;4.50;99.90
6407;DHT22;3236;51.022;6.818;2023-03-05T17:26:03;4.60;99.90
6407;DHT22;3236;51.022;6.818;2023-03-05T17:30:58;4.40;99.90
6407;DHT22;3236;51.022;6.818;2023-03-05T17:33:26;4.60;99.90
6407;DHT22;3236;51.022;6.818;2023-03-05T17:35:55;4.50;99.90
6407;DHT22;3236;51.022;6.818;2023-03-05T17:43:17;5.10;99.90
6407;DHT22;3236;51.022;6.818;2023-03-05T17:55:41;4.70;99.90
6407;DHT22;3236;51.022;6.818;2023-03-05T17:58:12;4.50;99.90
6407;DHT22;3236;51.022;6.818;2023-03-05T18:00:42;4.40;99.90
6407;DHT22;3236;51.022;6.818;2023-03-05T18:08:06;4.40;99.90
6407;DHT22;3236;51.022;6.818;2023-03-05T18:10:41;4.40;99.90
6407;DHT22;3236;51.022;6.818;2023-03-05T18:13:08;4.20;99.90
6407;DHT22;3236;51.022;6.818;2023-03-05T18:15:37;4.40;99.90
6407;DHT22;3236;51.022;6.818;2023-03-05T18:20:35;4.30;99.90
6407;DHT22;3236;51.022;6.818;2023-03-05T18:25:36;4.40;99.90
6407;DHT22;3236;51.022;6.818;2023-03-05T18:28:07;4.20;99.90
6407;DHT22;3236;51.022;6.818;2023-03-05T18:30:34;4.50;99.90
6407;DHT22;3236;51.022;6.818;2023-03-05T18:35:29;4.40;99.90
6407;DHT22;3236;51.022;6.818;2023-03-05T18:37:58;4.00;99.90
6407;DHT22;3236;51.022;6.818;2023-03-05T18:40:27;4.40;99.90
6407;DHT22;3236;51.022;6.818;2023-03-05T18:45:24;4.20;99.90
6407;DHT22;3236;51.022;6.818;2023-03-05T18:50:20;4.50;99.90
6407;DHT22;3236;51.022;6.818;2023-03-05T18:55:16;4.20;99.90
6407;DHT22;3236;51.022;6.818;2023-03-05T19:00:12;4.00;99.90
6407;DHT22;3236;51.022;6.818;2023-03-05T19:05:08;4.00;99.90
6407;DHT22;3236;51.022;6.818;2023-03-05T19:07:35;3.70;99.90
6407;DHT22;3236;51.022;6.818;2023-03-05T19:10:03;4.60;99.90
6407;DHT22;3236;51.022;6.818;2023-03-05T19:13:03;4.10;99.90
6407;DHT22;3236;51.022;6.818;2023-03-05T19:15:50;4.10;99.90
6407;DHT22;3236;51.022;6.818;2023-03-05T19:20:53;6.40;99.90
6407;DHT22;3236;51.022;6.818;2023-03-05T19:30:47;3.80;99.90
6407;DHT22;3236;51.022;6.818;2023-03-05T19:35:42;4.30;99.90
6407;DHT22;3236;51.022;6.818;2023-03-05T19:40:39;4.50;99.90
6407;DHT22;3236;51.022;6.818;2023-03-05T19:43:06;4.20;99.90
6407;DHT22;3236;51.022;6.818;2023-03-05T19:45:33;3.70;99.90
6407;DHT22;3236;51.022;6.818;2023-03-05T19:52:56;4.00;99.90
6407;DHT22;3236;51.022;6.818;2023-03-05T20:00:19;4.10;99.90
6407;DHT22;3236;51.022;6.818;2023-03-05T20:07:41;3.80;99.90
6407;DHT22;3236;51.022;6.818;2023-03-05T20:10:11;3.90;99.90
6407;DHT22;3236;51.022;6.818;2023-03-05T20:12:40;4.10;99.90
6407;DHT22;3236;51.022;6.818;2023-03-05T20:17:36;4.30;99.90
6407;DHT22;3236;51.022;6.818;2023-03-05T20:20:07;4.00;99.90
6407;DHT22;3236;51.022;6.818;2023-03-05T20:25:02;4.00;99.90
6407;DHT22;3236;51.022;6.818;2023-03-05T20:27:30;4.00;99.90
6407;DHT22;3236;51.022;6.818;2023-03-05T20:32:26;4.20;99.90
6407;DHT22;3236;51.022;6.818;2023-03-05T20:34:53;4.10;99.90
6407;DHT22;3236;51.022;6.818;2023-03-05T20:37:46;4.00;99.90
6407;DHT22;3236;51.022;6.818;2023-03-05T20:42:59;3.90;99.90
6407;DHT22;3236;51.022;6.818;2023-03-05T20:50:20;3.80;99.90
6407;DHT22;3236;51.022;6.818;2023-03-05T20:55:16;4.00;99.90
6407;DHT22;3236;51.022;6.818;2023-03-05T21:10:12;3.90;99.90
6407;DHT22;3236;51.022;6.818;2023-03-05T21:12:41;3.80;99.90
6407;DHT22;3236;51.022;6.818;2023-03-05T21:15:10;3.80;99.90
6407;DHT22;3236;51.022;6.818;2023-03-05T21:17:41;3.80;99.90
6407;DHT22;3236;51.022;6.818;2023-03-05T21:20:12;3.80;99.90